createdAt,value
2018-09-12T14:52:39.349Z,29.33
2018-09-12T14:53:39.145Z,29.22
2018-09-12T14:55:32.008Z,29.15
2018-09-12T14:56:31.887Z,29.08
2018-09-12T14:58:24.748Z,28.95
2018-09-12T14:59:24.637Z,28.97
2018-09-12T15:01:17.946Z,29.03
2018-09-12T15:02:17.888Z,28.90
2018-09-12T15:03:17.864Z,28.88
2018-09-12T15:04:17.797Z,28.80
2018-09-12T15:05:17.754Z,28.75
2018-09-12T15:06:17.710Z,28.77
2018-09-12T15:07:17.666Z,28.77
2018-09-12T15:08:17.619Z,28.72
2018-09-12T15:09:17.573Z,28.62
2018-09-12T15:10:17.559Z,28.56
2018-09-12T15:11:17.480Z,28.66
2018-09-12T15:12:17.436Z,28.58
2018-09-12T15:13:17.389Z,28.63
2018-09-12T15:14:17.348Z,28.60
2018-09-12T15:15:17.300Z,28.58
2018-09-12T15:16:17.256Z,28.59
2018-09-12T15:17:17.210Z,28.54
2018-09-12T15:18:17.167Z,28.58
2018-09-12T15:19:17.125Z,28.62
2018-09-12T15:20:17.078Z,28.54
2018-09-12T15:21:17.037Z,28.69
2018-09-12T15:22:17.002Z,28.63
2018-09-12T15:23:16.946Z,28.58
2018-09-12T15:24:16.903Z,28.60
2018-09-12T15:25:16.858Z,28.60
2018-09-12T15:26:17.531Z,28.59
2018-09-12T15:27:16.775Z,28.70
2018-09-12T15:28:16.727Z,28.73
2018-09-12T15:29:16.686Z,28.80
2018-09-12T15:30:16.645Z,28.63
2018-09-12T15:31:16.601Z,28.70
2018-09-12T15:32:16.599Z,28.69
2018-09-12T15:33:16.507Z,28.78
2018-09-12T15:34:16.477Z,28.69
2018-09-12T15:35:16.422Z,28.70
2018-09-12T15:36:16.382Z,28.80
2018-09-12T15:37:16.344Z,28.65
2018-09-12T15:38:16.292Z,28.68
2018-09-12T15:39:16.247Z,28.62
2018-09-12T15:40:16.201Z,28.54
2018-09-12T15:41:16.214Z,28.60
2018-09-12T15:42:16.116Z,28.46
2018-09-12T15:43:16.070Z,28.44
2018-09-12T15:44:16.031Z,28.38
2018-09-12T15:45:15.983Z,28.36
2018-09-12T15:46:15.941Z,28.35
2018-09-12T15:47:16.035Z,28.28
2018-09-12T15:48:15.854Z,28.29
2018-09-12T15:49:15.809Z,28.28
2018-09-12T15:50:15.767Z,28.21
2018-09-12T15:51:15.729Z,28.19
2018-09-12T15:52:15.678Z,28.13
2018-09-12T15:53:15.638Z,28.11
2018-09-12T15:54:15.590Z,28.09
2018-09-12T15:55:15.548Z,28.01
2018-09-12T15:56:15.506Z,27.99
2018-09-12T15:57:15.464Z,28.03
2018-09-12T15:58:15.466Z,27.94
2018-09-12T15:59:15.373Z,27.88
2018-09-12T16:00:15.337Z,27.88
2018-09-12T16:01:15.284Z,27.79
2018-09-12T16:02:15.238Z,27.86
2018-09-12T16:03:15.197Z,27.80
2018-09-12T16:04:15.160Z,27.84
2018-09-12T16:05:15.111Z,27.82
2018-09-12T16:06:15.064Z,27.85
2018-09-12T16:07:15.021Z,27.84
2018-09-12T16:08:14.977Z,27.74
2018-09-12T16:09:14.934Z,27.84
2018-09-12T16:10:14.966Z,27.84
2018-09-12T16:11:14.844Z,27.71
2018-09-12T16:12:14.807Z,27.67
2018-09-12T16:13:14.756Z,27.76
2018-09-12T16:14:14.713Z,27.66
2018-09-12T16:15:14.736Z,27.69
2018-09-12T16:16:14.627Z,27.73
2018-09-12T16:17:14.581Z,27.79
2018-09-12T16:18:14.538Z,27.84
2018-09-12T16:19:14.494Z,27.86
2018-09-12T16:20:14.452Z,27.77
2018-09-12T16:21:14.405Z,27.67
2018-09-12T16:22:14.361Z,27.69
2018-09-12T16:23:14.430Z,27.58
2018-09-12T16:24:14.275Z,27.59
2018-09-12T16:25:14.230Z,27.57
2018-09-12T16:26:14.185Z,27.53
2018-09-12T16:27:14.144Z,27.51
2018-09-12T16:28:14.098Z,27.47
2018-09-12T16:29:14.129Z,27.51
2018-09-12T16:30:14.009Z,27.42
2018-09-12T16:31:13.966Z,27.54
2018-09-12T16:32:13.944Z,27.47
2018-09-12T16:33:13.877Z,27.42
2018-09-12T16:34:13.837Z,27.32
2018-09-12T16:35:13.789Z,27.38
2018-09-12T16:36:13.745Z,27.38
2018-09-12T16:37:13.742Z,27.33
2018-09-12T16:38:13.656Z,27.26
2018-09-12T16:39:13.616Z,27.26
2018-09-12T16:40:13.617Z,27.24
2018-09-12T16:41:13.527Z,27.26
2018-09-12T16:42:13.479Z,27.21
2018-09-12T16:43:13.438Z,27.06
2018-09-12T16:44:13.464Z,27.13
2018-09-12T16:45:13.349Z,27.05
2018-09-12T16:46:13.303Z,26.99
2018-09-12T16:47:13.262Z,26.94
2018-09-12T16:48:13.215Z,26.89
2018-09-12T16:49:13.170Z,26.84
2018-09-12T16:50:13.124Z,26.84
2018-09-12T16:51:13.093Z,26.73
2018-09-12T16:52:13.037Z,26.72
2018-09-12T16:53:27.552Z,26.73
2018-09-12T16:54:12.948Z,26.68
2018-09-12T16:55:12.912Z,26.65
2018-09-12T16:56:12.893Z,26.65
2018-09-12T16:57:12.820Z,26.55
2018-09-12T16:58:12.774Z,26.59
2018-09-12T16:59:12.729Z,26.54
2018-09-12T17:00:12.692Z,26.40
2018-09-12T17:01:12.637Z,26.44
2018-09-12T17:02:12.595Z,26.37
2018-09-12T17:03:12.548Z,26.37
2018-09-12T17:04:12.510Z,26.32
2018-09-12T17:05:12.461Z,26.22
2018-09-12T17:06:12.414Z,26.25
2018-09-12T17:07:12.374Z,26.25
2018-09-12T17:08:12.326Z,26.24
2018-09-12T17:09:12.280Z,26.20
2018-09-12T17:10:12.237Z,26.22
2018-09-12T17:11:12.197Z,26.18
2018-09-12T17:12:12.160Z,26.06
2018-09-12T17:13:12.103Z,26.01
2018-09-12T17:14:12.116Z,26.05
2018-09-12T17:15:12.015Z,26.08
2018-09-12T17:16:11.972Z,25.97
2018-09-12T17:17:11.931Z,25.90
2018-09-12T17:18:11.888Z,25.91
2018-09-12T17:19:11.834Z,25.84
2018-09-12T17:20:11.819Z,25.84
2018-09-12T17:21:11.746Z,25.83
2018-09-12T17:22:11.706Z,25.82
2018-09-12T17:23:11.655Z,25.79
2018-09-12T17:24:11.614Z,25.75
2018-09-12T17:25:11.566Z,25.83
2018-09-12T17:26:11.526Z,25.80
2018-09-12T17:27:11.477Z,25.80
2018-09-12T17:28:11.433Z,25.77
2018-09-12T17:29:11.388Z,25.67
2018-09-12T17:30:11.351Z,25.67
2018-09-12T17:31:11.298Z,25.59
2018-09-12T17:32:11.254Z,25.62
2018-09-12T17:33:11.208Z,25.65
2018-09-12T17:34:11.163Z,25.53
2018-09-12T17:35:11.119Z,25.54
2018-09-12T17:36:11.074Z,25.49
2018-09-12T17:37:11.030Z,25.46
2018-09-12T17:38:10.983Z,25.47
2018-09-12T17:39:10.938Z,25.52
2018-09-12T17:40:10.912Z,25.46
2018-09-12T17:41:10.848Z,25.31
2018-09-12T17:42:10.803Z,25.31
2018-09-12T17:43:10.761Z,25.28
2018-09-12T17:44:10.713Z,25.32
2018-09-12T17:45:10.669Z,25.31
2018-09-12T17:46:10.625Z,25.19
2018-09-12T17:47:10.580Z,25.19
2018-09-12T17:48:10.537Z,25.10
2018-09-12T17:49:10.492Z,25.00
2018-09-12T17:50:10.446Z,24.91
2018-09-12T17:51:10.403Z,24.88
2018-09-12T17:52:10.355Z,24.85
2018-09-12T17:53:10.308Z,24.67
2018-09-12T17:54:10.267Z,24.69
2018-09-12T17:55:10.218Z,24.64
2018-09-12T17:56:10.369Z,24.57
2018-09-12T17:57:10.137Z,24.47
2018-09-12T17:58:10.084Z,24.49
2018-09-12T17:59:10.037Z,24.41
2018-09-12T18:00:09.997Z,24.38
2018-09-12T18:01:09.946Z,24.27
2018-09-12T18:02:09.903Z,24.24
2018-09-12T18:03:09.857Z,24.13
2018-09-12T18:04:09.813Z,24.08
2018-09-12T18:05:09.766Z,24.12
2018-09-12T18:06:09.730Z,24.01
2018-09-12T18:07:09.676Z,23.90
2018-09-12T18:08:09.631Z,23.86
2018-09-12T18:09:09.590Z,23.86
2018-09-12T18:10:09.563Z,23.85
2018-09-12T18:11:09.554Z,23.65
2018-09-12T18:12:09.451Z,23.72
2018-09-12T18:13:09.403Z,23.60
2018-09-12T18:14:09.357Z,23.61
2018-09-12T18:15:09.317Z,23.58
2018-09-12T18:16:09.266Z,23.55
2018-09-12T18:17:09.220Z,23.45
2018-09-12T18:18:09.177Z,23.40
2018-09-12T18:19:09.131Z,23.35
2018-09-12T18:20:09.084Z,23.42
2018-09-12T18:21:09.041Z,23.32
2018-09-12T18:22:08.999Z,23.35
2018-09-12T18:23:08.947Z,23.29
2018-09-12T18:24:08.931Z,23.19
2018-09-12T18:25:08.921Z,23.20
2018-09-12T18:26:08.817Z,23.11
2018-09-12T18:27:08.764Z,23.14
2018-09-12T18:28:08.725Z,23.05
2018-09-12T18:29:08.677Z,23.07
2018-09-12T18:30:08.629Z,23.02
2018-09-12T18:31:08.581Z,22.94
2018-09-12T18:32:08.535Z,22.92
2018-09-12T18:33:08.498Z,22.86
2018-09-12T18:34:08.443Z,22.84
2018-09-12T18:35:08.398Z,22.68
2018-09-12T18:36:08.401Z,22.75
2018-09-12T18:37:09.079Z,22.74
2018-09-12T18:38:08.317Z,22.75
2018-09-12T18:39:08.216Z,22.71
2018-09-12T18:40:08.169Z,22.71
2018-09-12T18:41:08.129Z,22.64
2018-09-12T18:42:08.075Z,22.60
2018-09-12T18:43:08.147Z,22.60
2018-09-12T18:44:07.984Z,22.67
2018-09-12T18:45:07.957Z,22.56
2018-09-12T18:46:07.892Z,22.54
2018-09-12T18:47:07.846Z,22.53
2018-09-12T18:48:07.799Z,22.50
2018-09-12T18:49:07.771Z,22.41
2018-09-12T18:50:07.706Z,22.31
2018-09-12T18:51:08.580Z,22.29
2018-09-12T18:52:07.617Z,22.31
2018-09-12T18:53:07.568Z,22.37
2018-09-12T18:54:07.640Z,22.29
2018-09-12T18:55:07.477Z,22.13
2018-09-12T18:56:07.433Z,22.20
2018-09-12T18:57:07.383Z,22.14
2018-09-12T18:58:07.339Z,22.06
2018-09-12T18:59:07.290Z,22.01
2018-09-12T19:00:07.249Z,21.98
2018-09-12T19:01:07.197Z,21.98
2018-09-12T19:02:07.152Z,21.92
2018-09-12T19:03:07.105Z,21.98
2018-09-12T19:04:07.059Z,21.98
2018-09-12T19:05:07.012Z,21.90
2018-09-12T19:06:06.965Z,21.85
2018-09-12T19:07:07.124Z,21.94
2018-09-12T19:08:06.873Z,21.94
2018-09-12T19:09:06.829Z,21.98
2018-09-12T19:10:06.780Z,21.95
2018-09-12T19:11:06.734Z,21.92
2018-09-12T19:12:06.688Z,21.90
2018-09-12T19:13:06.685Z,21.88
2018-09-12T19:14:06.596Z,21.79
2018-09-12T19:15:06.556Z,21.88
2018-09-12T19:16:06.503Z,21.81
2018-09-12T19:17:06.454Z,21.83
2018-09-12T19:18:06.447Z,21.83
2018-09-12T19:19:06.365Z,21.76
2018-09-12T19:20:06.318Z,21.79
2018-09-12T19:21:06.292Z,21.76
2018-09-12T19:22:06.226Z,21.69
2018-09-12T19:23:06.177Z,21.64
2018-09-12T19:24:06.133Z,21.72
2018-09-12T19:25:06.082Z,21.72
2018-09-12T19:26:06.039Z,21.63
2018-09-12T19:27:05.990Z,21.61
2018-09-12T19:28:05.958Z,21.63
2018-09-12T19:29:05.895Z,21.64
2018-09-12T19:30:05.874Z,21.63
2018-09-12T19:31:05.801Z,21.57
2018-09-12T19:32:05.755Z,21.59
2018-09-12T19:33:05.708Z,21.51
2018-09-12T19:34:05.662Z,21.48
2018-09-12T19:35:05.631Z,21.39
2018-09-12T19:36:05.573Z,21.39
2018-09-12T19:37:05.522Z,21.39
2018-09-12T19:38:05.479Z,21.36
2018-09-12T19:39:05.428Z,21.26
2018-09-12T19:40:05.382Z,21.14
2018-09-12T19:41:05.334Z,21.24
2018-09-12T19:42:05.411Z,21.20
2018-09-12T19:43:05.239Z,21.20
2018-09-12T19:44:05.194Z,21.13
2018-09-12T19:45:05.146Z,21.19
2018-09-12T19:46:05.103Z,21.16
2018-09-12T19:47:05.052Z,21.23
2018-09-12T19:48:05.036Z,21.21
2018-09-12T19:49:04.958Z,21.21
2018-09-12T19:50:04.912Z,21.24
2018-09-12T19:51:04.867Z,21.13
2018-09-12T19:52:04.819Z,21.06
2018-09-12T19:53:04.774Z,20.98
2018-09-12T19:54:04.727Z,20.93
2018-09-12T19:55:04.686Z,20.87
2018-09-12T19:56:04.635Z,21.05
2018-09-12T19:57:04.583Z,20.95
2018-09-12T19:58:04.540Z,20.81
2018-09-12T19:59:04.489Z,20.95
2018-09-12T20:00:04.444Z,20.87
2018-09-12T20:01:04.396Z,20.90
2018-09-12T20:02:04.348Z,20.81
2018-09-12T20:03:04.300Z,20.87
2018-09-12T20:04:04.260Z,20.98
2018-09-12T20:05:04.207Z,20.83
2018-09-12T20:06:04.162Z,20.89
2018-09-12T20:07:04.117Z,20.84
2018-09-12T20:08:04.068Z,20.83
2018-09-12T20:09:04.017Z,20.93
2018-09-12T20:10:03.971Z,21.01
2018-09-12T20:11:03.923Z,20.90
2018-09-12T20:12:03.877Z,20.87
2018-09-12T20:13:03.832Z,20.93
2018-09-12T20:14:03.782Z,20.87
2018-09-12T20:15:03.737Z,20.83
2018-09-12T20:16:03.705Z,20.89
2018-09-12T20:17:03.641Z,20.83
2018-09-12T20:18:03.619Z,20.84
2018-09-12T20:19:03.545Z,20.87
2018-09-12T20:20:03.505Z,20.86
2018-09-12T20:21:03.477Z,20.86
2018-09-12T20:22:03.413Z,20.76
2018-09-12T20:23:03.357Z,20.81
2018-09-12T20:24:03.649Z,20.86
2018-09-12T20:25:03.261Z,20.84
2018-09-12T20:26:03.225Z,20.81
2018-09-12T20:27:03.173Z,20.80
2018-09-12T20:28:03.126Z,20.71
2018-09-12T20:29:03.073Z,20.79
2018-09-12T20:30:03.130Z,20.71
2018-09-12T20:31:02.983Z,20.71
2018-09-12T20:32:02.939Z,20.76
2018-09-12T20:33:02.909Z,20.74
2018-09-12T20:34:02.837Z,20.72
2018-09-12T20:35:02.794Z,20.72
2018-09-12T20:36:02.745Z,20.72
2018-09-12T20:37:02.695Z,20.89
2018-09-12T20:38:02.651Z,20.86
2018-09-12T20:39:02.599Z,20.79
2018-09-12T20:40:02.568Z,20.86
2018-09-12T20:41:02.507Z,20.76
2018-09-12T20:42:02.456Z,20.77
2018-09-12T20:43:02.429Z,20.72
2018-09-12T20:44:02.376Z,20.71
2018-09-12T20:45:02.343Z,20.74
2018-09-12T20:46:02.270Z,20.74
2018-09-12T20:47:02.234Z,20.84
2018-09-12T20:48:02.179Z,20.84
2018-09-12T20:49:02.125Z,20.77
2018-09-12T20:50:02.095Z,20.89
2018-09-12T20:51:02.032Z,20.86
2018-09-12T20:52:01.985Z,20.87
2018-09-12T20:53:01.941Z,20.98
2018-09-12T20:54:06.610Z,20.90
2018-09-12T20:55:01.841Z,20.90
2018-09-12T20:56:01.795Z,20.83
2018-09-12T20:57:01.752Z,20.86
2018-09-12T20:58:01.697Z,20.86
2018-09-12T20:59:01.653Z,20.84
2018-09-12T21:00:01.609Z,20.84
2018-09-12T21:01:01.561Z,20.87
2018-09-12T21:02:01.509Z,20.99
2018-09-12T21:03:01.490Z,21.02
2018-09-12T21:04:01.416Z,21.23
2018-09-12T21:05:01.366Z,21.50
2018-09-12T21:06:01.320Z,21.67
2018-09-12T21:07:01.270Z,21.82
2018-09-12T21:08:01.226Z,21.99
2018-09-12T21:09:01.175Z,22.28
2018-09-12T21:10:01.127Z,22.22
2018-09-12T21:11:01.116Z,22.43
2018-09-12T21:12:01.034Z,22.54
2018-09-12T21:13:01.008Z,22.65
2018-09-12T21:14:00.938Z,22.62
2018-09-12T21:15:00.890Z,22.72
2018-09-12T21:16:00.844Z,22.84
2018-09-12T21:17:00.794Z,22.86
2018-09-12T21:18:00.764Z,22.86
2018-09-12T21:19:00.745Z,22.92
2018-09-12T21:20:00.658Z,22.93
2018-09-12T21:21:00.606Z,22.96
2018-09-12T21:22:00.560Z,22.93
2018-09-12T21:23:00.515Z,22.92
2018-09-12T21:24:00.464Z,22.94
2018-09-12T21:25:00.419Z,22.89
2018-09-12T21:26:00.368Z,22.97
2018-09-12T21:27:00.326Z,22.89
2018-09-12T21:28:00.276Z,22.83
2018-09-12T21:29:00.229Z,22.89
2018-09-12T21:30:00.180Z,22.86
2018-09-12T21:31:00.139Z,22.72
2018-09-12T21:32:00.087Z,22.83
2018-09-12T21:33:00.048Z,22.72
2018-09-12T21:34:00.263Z,22.74
2018-09-12T21:35:00.255Z,22.57
2018-09-12T21:35:59.921Z,22.56
2018-09-12T21:36:59.949Z,22.54
2018-09-12T21:37:59.808Z,22.53
2018-09-12T21:38:59.782Z,22.37
2018-09-12T21:39:59.709Z,22.38
2018-09-12T21:40:59.660Z,22.28
2018-09-12T21:41:59.626Z,22.22
2018-09-12T21:42:59.567Z,22.31
2018-09-12T21:43:59.519Z,22.22
2018-09-12T21:44:59.478Z,22.17
2018-09-12T21:45:59.425Z,22.09
2018-09-12T21:46:59.377Z,22.14
2018-09-12T21:47:59.334Z,22.01
2018-09-12T21:48:59.283Z,21.98
2018-09-12T21:49:59.245Z,21.98
2018-09-12T21:50:59.189Z,21.94
2018-09-12T21:51:59.141Z,21.94
2018-09-12T21:52:59.094Z,21.97
2018-09-12T21:53:59.060Z,21.81
2018-09-12T21:54:58.999Z,21.79
2018-09-12T21:55:58.952Z,21.76
2018-09-12T21:56:58.905Z,21.82
2018-09-12T21:57:58.857Z,21.75
2018-09-12T21:58:58.810Z,21.81
2018-09-12T21:59:58.762Z,21.79
2018-09-12T22:00:58.717Z,21.81
2018-09-12T22:01:58.668Z,21.78
2018-09-12T22:02:58.624Z,21.78
2018-09-12T22:03:58.573Z,21.79
2018-09-12T22:04:58.526Z,21.61
2018-09-12T22:05:58.480Z,21.63
2018-09-12T22:06:58.432Z,21.66
2018-09-12T22:07:58.452Z,21.64
2018-09-12T22:08:58.335Z,21.63
2018-09-12T22:09:58.288Z,21.72
2018-09-12T22:10:58.243Z,21.76
2018-09-12T22:11:58.195Z,21.72
2018-09-12T22:12:58.147Z,21.74
2018-09-12T22:13:58.099Z,21.66
2018-09-12T22:14:58.052Z,21.67
2018-09-12T22:15:58.005Z,21.61
2018-09-12T22:16:57.956Z,21.51
2018-09-12T22:17:57.909Z,21.45
2018-09-12T22:18:57.865Z,21.38
2018-09-12T22:19:57.814Z,21.41
2018-09-12T22:20:57.766Z,21.44
2018-09-12T22:21:57.722Z,21.46
2018-09-12T22:22:57.674Z,21.42
2018-09-12T22:23:57.625Z,21.41
2018-09-12T22:24:57.575Z,21.39
2018-09-12T22:25:57.529Z,21.34
2018-09-12T22:26:57.480Z,21.34
2018-09-12T22:27:57.437Z,21.29
2018-09-12T22:28:57.388Z,21.29
2018-09-12T22:29:57.340Z,21.34
2018-09-12T22:30:57.290Z,21.21
2018-09-12T22:31:57.245Z,21.20
2018-09-12T22:32:57.195Z,21.17
2018-09-12T22:33:57.150Z,21.09
2018-09-12T22:34:57.101Z,21.09
2018-09-12T22:35:57.056Z,21.11
2018-09-12T22:36:57.008Z,21.05
2018-09-12T22:37:56.961Z,21.02
2018-09-12T22:38:56.909Z,21.05
2018-09-12T22:39:56.902Z,20.93
2018-09-12T22:40:56.814Z,20.91
2018-09-12T22:41:56.767Z,20.96
2018-09-12T22:42:56.722Z,20.87
2018-09-12T22:43:56.673Z,20.93
2018-09-12T22:44:56.625Z,20.80
2018-09-12T22:45:56.578Z,20.87
2018-09-12T22:46:56.528Z,20.89
2018-09-12T22:47:56.481Z,20.79
2018-09-12T22:48:56.433Z,20.71
2018-09-12T22:49:56.385Z,20.65
2018-09-12T22:50:56.339Z,20.51
2018-09-12T22:51:56.291Z,20.47
2018-09-12T22:52:56.242Z,20.35
2018-09-12T22:53:56.196Z,20.38
2018-09-12T22:54:56.146Z,20.39
